createdAt,value
2022-11-05T00:00:42.183Z,1005.24
2022-11-05T00:01:42.233Z,1005.26
2022-11-05T00:02:42.164Z,1005.31
2022-11-05T00:03:42.224Z,1005.30
2022-11-05T00:04:42.182Z,1005.31
2022-11-05T00:05:42.133Z,1005.36
2022-11-05T00:06:42.121Z,1005.36
2022-11-05T00:07:42.121Z,1005.42
2022-11-05T00:08:42.099Z,1005.40
2022-11-05T00:09:42.114Z,1005.39
2022-11-05T00:10:42.076Z,1005.40
2022-11-05T00:11:42.063Z,1005.40
2022-11-05T00:12:42.055Z,1005.42
2022-11-05T00:13:42.043Z,1005.42
2022-11-05T00:14:42.043Z,1005.40
2022-11-05T00:15:42.021Z,1005.40
2022-11-05T00:16:42.011Z,1005.43
2022-11-05T00:17:42.055Z,1005.46
2022-11-05T00:18:41.992Z,1005.46
2022-11-05T00:19:41.989Z,1005.45
2022-11-05T00:20:41.986Z,1005.45
2022-11-05T00:21:41.955Z,1005.50
2022-11-05T00:22:41.949Z,1005.51
2022-11-05T00:23:41.931Z,1005.49
2022-11-05T00:24:41.948Z,1005.53
2022-11-05T00:25:41.911Z,1005.49
2022-11-05T00:26:41.904Z,1005.51
2022-11-05T00:27:41.916Z,1005.53
2022-11-05T00:28:41.892Z,1005.60
2022-11-05T00:29:41.867Z,1005.62
2022-11-05T00:30:41.864Z,1005.62
2022-11-05T00:31:41.849Z,1005.62
2022-11-05T00:32:41.836Z,1005.60
2022-11-05T00:33:41.844Z,1005.58
2022-11-05T00:34:41.817Z,1005.57
2022-11-05T00:35:41.802Z,1005.59
2022-11-05T00:36:41.834Z,1005.62
2022-11-05T00:37:47.089Z,1005.61
2022-11-05T00:38:42.790Z,1005.61
2022-11-05T00:39:41.758Z,1005.61
2022-11-05T00:40:41.824Z,1005.62
2022-11-05T00:41:41.741Z,1005.66
2022-11-05T00:42:41.727Z,1005.64
2022-11-05T00:43:41.726Z,1005.63
2022-11-05T00:44:41.708Z,1005.64
2022-11-05T00:45:41.693Z,1005.66
2022-11-05T00:46:41.685Z,1005.62
2022-11-05T00:47:41.672Z,1005.67
2022-11-05T00:48:41.672Z,1005.67
2022-11-05T00:49:41.655Z,1005.68
2022-11-05T00:50:41.646Z,1005.71
2022-11-05T00:51:41.629Z,1005.71
2022-11-05T00:52:41.634Z,1005.73
2022-11-05T00:53:41.625Z,1005.73
2022-11-05T00:54:41.597Z,1005.75
2022-11-05T00:55:41.583Z,1005.79
2022-11-05T00:56:41.577Z,1005.76
2022-11-05T00:57:41.577Z,1005.79
2022-11-05T00:58:41.564Z,1005.81
2022-11-05T00:59:41.549Z,1005.84
2022-11-05T01:00:41.530Z,1005.84
2022-11-05T01:01:41.625Z,1005.85
2022-11-05T01:02:41.674Z,1005.87
2022-11-05T01:03:41.553Z,1005.86
2022-11-05T01:04:41.486Z,1005.82
2022-11-05T01:05:41.473Z,1005.86
2022-11-05T01:06:41.463Z,1005.85
2022-11-05T01:07:41.452Z,1005.88
2022-11-05T01:08:41.471Z,1005.89
2022-11-05T01:09:41.429Z,1005.92
2022-11-05T01:10:41.452Z,1005.93
2022-11-05T01:11:41.407Z,1005.92
2022-11-05T01:12:41.398Z,1005.96
2022-11-05T01:13:41.399Z,1005.98
2022-11-05T01:14:41.375Z,1005.97
2022-11-05T01:15:41.425Z,1006.01
2022-11-05T01:16:41.365Z,1006.01
2022-11-05T01:17:41.343Z,1006.08
2022-11-05T01:18:41.346Z,1006.05
2022-11-05T01:19:41.322Z,1006.09
2022-11-05T01:20:41.310Z,1006.01
2022-11-05T01:21:41.298Z,1006.06
2022-11-05T01:22:41.303Z,1006.02
2022-11-05T01:23:41.287Z,1006.04
2022-11-05T01:24:41.282Z,1006.07
2022-11-05T01:25:41.255Z,1006.05
2022-11-05T01:26:41.243Z,1006.01
2022-11-05T01:27:41.238Z,1006.06
2022-11-05T01:28:41.357Z,1006.09
2022-11-05T01:29:41.208Z,1006.01
2022-11-05T01:30:41.220Z,1006.04
2022-11-05T01:31:41.193Z,1006.05
2022-11-05T01:32:41.186Z,1006.02
2022-11-05T01:33:41.181Z,1006.04
2022-11-05T01:34:41.157Z,1006.05
2022-11-05T01:35:41.149Z,1006.03
2022-11-05T01:36:41.137Z,1006.06
2022-11-05T01:37:41.123Z,1006.05
2022-11-05T01:38:41.124Z,1006.04
2022-11-05T01:39:41.102Z,1006.09
2022-11-05T01:40:41.113Z,1006.05
2022-11-05T01:41:41.078Z,1006.11
2022-11-05T01:42:41.071Z,1006.14
2022-11-05T01:43:41.081Z,1006.14
2022-11-05T01:44:41.054Z,1006.13
2022-11-05T01:45:41.038Z,1006.13
2022-11-05T01:46:41.033Z,1006.15
2022-11-05T01:47:41.014Z,1006.14
2022-11-05T01:48:41.023Z,1006.14
2022-11-05T01:49:40.989Z,1006.17
2022-11-05T01:50:40.984Z,1006.18
2022-11-05T01:51:40.973Z,1006.14
2022-11-05T01:52:40.965Z,1006.17
2022-11-05T01:53:40.966Z,1006.13
2022-11-05T01:54:40.938Z,1006.16
2022-11-05T01:55:40.926Z,1006.15
2022-11-05T01:56:40.929Z,1006.19
2022-11-05T01:57:40.903Z,1006.21
2022-11-05T01:58:40.908Z,1006.15
2022-11-05T01:59:40.885Z,1006.18
2022-11-05T02:00:40.884Z,1006.16
2022-11-05T02:01:40.962Z,1006.22
2022-11-05T02:02:41.030Z,1006.24
2022-11-05T02:03:40.852Z,1006.31
2022-11-05T02:04:40.831Z,1006.30
2022-11-05T02:05:40.827Z,1006.29
2022-11-05T02:06:40.811Z,1006.32
2022-11-05T02:07:40.794Z,1006.33
2022-11-05T02:08:40.838Z,1006.35
2022-11-05T02:09:40.770Z,1006.33
2022-11-05T02:10:40.830Z,1006.36
2022-11-05T02:11:40.760Z,1006.40
2022-11-05T02:12:40.793Z,1006.42
2022-11-05T02:13:40.727Z,1006.36
2022-11-05T02:14:40.725Z,1006.41
2022-11-05T02:15:40.706Z,1006.42
2022-11-05T02:16:40.715Z,1006.46
2022-11-05T02:17:40.694Z,1006.48
2022-11-05T02:18:40.672Z,1006.48
2022-11-05T02:19:40.659Z,1006.45
2022-11-05T02:20:40.654Z,1006.50
2022-11-05T02:21:40.643Z,1006.48
2022-11-05T02:22:40.628Z,1006.53
2022-11-05T02:23:40.630Z,1006.57
2022-11-05T02:24:40.606Z,1006.55
2022-11-05T02:25:40.598Z,1006.59
2022-11-05T02:26:40.584Z,1006.59
2022-11-05T02:27:40.573Z,1006.57
2022-11-05T02:28:40.596Z,1006.60
2022-11-05T02:29:40.551Z,1006.61
2022-11-05T02:30:40.549Z,1006.59
2022-11-05T02:31:40.535Z,1006.56
2022-11-05T02:32:40.543Z,1006.63
2022-11-05T02:33:40.512Z,1006.63
2022-11-05T02:34:40.494Z,1006.61
2022-11-05T02:35:40.488Z,1006.64
2022-11-05T02:36:40.480Z,1006.65
2022-11-05T02:37:40.475Z,1006.62
2022-11-05T02:38:40.450Z,1006.62
2022-11-05T02:39:40.446Z,1006.65
2022-11-05T02:40:40.429Z,1006.65
2022-11-05T02:41:40.421Z,1006.64
2022-11-05T02:42:40.417Z,1006.65
2022-11-05T02:43:48.134Z,1006.64
2022-11-05T02:44:40.386Z,1006.72
2022-11-05T02:45:40.378Z,1006.68
2022-11-05T02:46:40.362Z,1006.72
2022-11-05T02:47:40.365Z,1006.71
2022-11-05T02:48:40.341Z,1006.74
2022-11-05T02:49:40.332Z,1006.73
2022-11-05T02:50:40.320Z,1006.72
2022-11-05T02:51:40.312Z,1006.77
2022-11-05T02:52:40.311Z,1006.78
2022-11-05T02:53:40.292Z,1006.76
2022-11-05T02:54:40.277Z,1006.83
2022-11-05T02:55:40.268Z,1006.80
2022-11-05T02:56:40.261Z,1006.78
2022-11-05T02:57:40.256Z,1006.85
2022-11-05T02:58:40.235Z,1006.81
2022-11-05T02:59:40.521Z,1006.82
2022-11-05T03:00:40.215Z,1006.87
2022-11-05T03:01:40.370Z,1006.85
2022-11-05T03:02:40.352Z,1006.87
2022-11-05T03:03:40.183Z,1006.88
2022-11-05T03:04:40.169Z,1006.93
2022-11-05T03:05:40.160Z,1006.95
2022-11-05T03:06:40.146Z,1006.94
2022-11-05T03:07:40.138Z,1006.91
2022-11-05T03:08:40.138Z,1006.94
2022-11-05T03:09:40.116Z,1006.96
2022-11-05T03:10:40.104Z,1006.93
2022-11-05T03:11:40.100Z,1006.99
2022-11-05T03:12:40.083Z,1006.99
2022-11-05T03:13:40.081Z,1007.04
2022-11-05T03:14:40.060Z,1007.01
2022-11-05T03:15:40.069Z,1007.01
2022-11-05T03:16:40.039Z,1007.03
2022-11-05T03:17:40.045Z,1007.02
2022-11-05T03:18:40.021Z,1007.04
2022-11-05T03:19:40.012Z,1007.02
2022-11-05T03:20:40.001Z,1007.06
2022-11-05T03:21:39.985Z,1007.04
2022-11-05T03:22:39.982Z,1007.12
2022-11-05T03:23:39.963Z,1007.10
2022-11-05T03:24:39.952Z,1007.10
2022-11-05T03:25:39.958Z,1007.10
2022-11-05T03:26:39.929Z,1007.11
2022-11-05T03:27:39.934Z,1007.13
2022-11-05T03:28:39.908Z,1007.16
2022-11-05T03:29:39.898Z,1007.16
2022-11-05T03:30:39.890Z,1007.21
2022-11-05T03:31:39.901Z,1007.21
2022-11-05T03:32:39.873Z,1007.25
2022-11-05T03:33:39.855Z,1007.22
2022-11-05T03:34:39.846Z,1007.25
2022-11-05T03:35:39.834Z,1007.25
2022-11-05T03:36:39.868Z,1007.30
2022-11-05T03:37:39.828Z,1007.31
2022-11-05T03:38:39.805Z,1007.32
2022-11-05T03:39:39.791Z,1007.33
2022-11-05T03:40:39.780Z,1007.35
2022-11-05T03:41:39.769Z,1007.32
2022-11-05T03:42:39.770Z,1007.37
2022-11-05T03:43:39.749Z,1007.36
2022-11-05T03:44:39.735Z,1007.36
2022-11-05T03:45:39.727Z,1007.37
2022-11-05T03:46:39.714Z,1007.38
2022-11-05T03:47:39.820Z,1007.37
2022-11-05T03:48:39.783Z,1007.38
2022-11-05T03:49:39.689Z,1007.42
2022-11-05T03:50:41.416Z,1007.44
2022-11-05T03:51:39.665Z,1007.45
2022-11-05T03:52:39.663Z,1007.47
2022-11-05T03:53:39.641Z,1007.50
2022-11-05T03:54:39.630Z,1007.47
2022-11-05T03:55:39.622Z,1007.50
2022-11-05T03:56:39.607Z,1007.49
2022-11-05T03:57:39.611Z,1007.51
2022-11-05T03:58:39.585Z,1007.53
2022-11-05T03:59:39.576Z,1007.49
2022-11-05T04:00:39.564Z,1007.58
2022-11-05T04:01:39.695Z,1007.54
2022-11-05T04:02:39.728Z,1007.57
2022-11-05T04:03:39.552Z,1007.62
2022-11-05T04:04:39.520Z,1007.63
2022-11-05T04:05:39.512Z,1007.64
2022-11-05T04:06:39.498Z,1007.61
2022-11-05T04:07:39.504Z,1007.66
2022-11-05T04:08:39.477Z,1007.70
2022-11-05T04:09:39.477Z,1007.66
2022-11-05T04:10:39.454Z,1007.71
2022-11-05T04:11:39.445Z,1007.71
2022-11-05T04:12:39.446Z,1007.75
2022-11-05T04:13:39.426Z,1007.75
2022-11-05T04:14:39.413Z,1007.75
2022-11-05T04:15:39.416Z,1007.76
2022-11-05T04:16:39.390Z,1007.79
2022-11-05T04:17:39.394Z,1007.79
2022-11-05T04:18:39.368Z,1007.79
2022-11-05T04:19:39.375Z,1007.81
2022-11-05T04:20:39.347Z,1007.84
2022-11-05T04:21:39.337Z,1007.86
2022-11-05T04:22:39.336Z,1007.84
2022-11-05T04:23:39.315Z,1007.81
2022-11-05T04:24:39.304Z,1007.86
2022-11-05T04:25:39.296Z,1007.85
2022-11-05T04:26:39.282Z,1007.84
2022-11-05T04:27:39.283Z,1007.88
2022-11-05T04:28:39.266Z,1007.87
2022-11-05T04:29:39.250Z,1007.91
2022-11-05T04:30:39.237Z,1007.90
2022-11-05T04:31:39.244Z,1007.91
2022-11-05T04:32:39.216Z,1007.94
2022-11-05T04:33:39.219Z,1007.91
2022-11-05T04:34:39.196Z,1007.93
2022-11-05T04:35:39.206Z,1007.99
2022-11-05T04:36:39.178Z,1007.98
2022-11-05T04:37:39.164Z,1008.00
2022-11-05T04:38:39.160Z,1008.03
2022-11-05T04:39:39.142Z,1008.05
2022-11-05T04:40:39.128Z,1008.06
2022-11-05T04:41:39.127Z,1008.07
2022-11-05T04:42:39.106Z,1008.05
2022-11-05T04:43:39.111Z,1008.03
2022-11-05T04:44:39.087Z,1008.08
2022-11-05T04:45:39.079Z,1008.04
2022-11-05T04:46:39.069Z,1008.03
2022-11-05T04:47:39.056Z,1008.05
2022-11-05T04:48:39.051Z,1008.06
2022-11-05T04:49:39.034Z,1008.03
2022-11-05T04:50:39.020Z,1008.05
2022-11-05T04:51:39.125Z,1008.03
2022-11-05T04:52:39.005Z,1008.02
2022-11-05T04:53:39.002Z,1008.02
2022-11-05T04:54:38.978Z,1007.99
2022-11-05T04:55:38.970Z,1008.02
2022-11-05T04:56:38.958Z,1008.06
2022-11-05T04:57:38.949Z,1008.06
2022-11-05T04:58:38.944Z,1008.05
2022-11-05T04:59:38.929Z,1008.07
2022-11-05T05:00:38.985Z,1008.05
2022-11-05T05:01:39.040Z,1008.07
2022-11-05T05:02:38.891Z,1008.06
2022-11-05T05:03:38.892Z,1008.12
2022-11-05T05:04:38.872Z,1008.14
2022-11-05T05:05:38.860Z,1008.07
2022-11-05T05:06:38.850Z,1008.13
2022-11-05T05:07:38.854Z,1008.09
2022-11-05T05:08:38.842Z,1008.12
2022-11-05T05:09:38.818Z,1008.08
2022-11-05T05:10:38.812Z,1008.11
2022-11-05T05:11:38.799Z,1008.07
2022-11-05T05:12:38.787Z,1008.01
2022-11-05T05:13:38.792Z,1008.06
2022-11-05T05:14:38.776Z,1008.03
2022-11-05T05:15:38.756Z,1008.04
2022-11-05T05:16:38.743Z,1008.05
2022-11-05T05:17:38.733Z,1008.04
2022-11-05T05:18:43.535Z,1008.03
2022-11-05T05:19:39.712Z,1008.00
2022-11-05T05:20:38.699Z,1008.00
2022-11-05T05:21:38.698Z,1008.07
2022-11-05T05:22:38.679Z,1008.04
2022-11-05T05:23:38.694Z,1008.06
2022-11-05T05:24:38.659Z,1008.07
2022-11-05T05:25:38.650Z,1008.13
2022-11-05T05:26:38.637Z,1008.16
2022-11-05T05:27:38.630Z,1008.13
2022-11-05T05:28:38.625Z,1008.17
2022-11-05T05:29:38.608Z,1008.20
2022-11-05T05:30:38.596Z,1008.23
2022-11-05T05:31:38.583Z,1008.24
2022-11-05T05:32:38.572Z,1008.26
2022-11-05T05:33:38.577Z,1008.32
2022-11-05T05:34:38.549Z,1008.33
2022-11-05T05:35:38.543Z,1008.29
2022-11-05T05:36:38.531Z,1008.33
2022-11-05T05:37:38.522Z,1008.34
2022-11-05T05:38:38.520Z,1008.40
2022-11-05T05:39:38.517Z,1008.41
2022-11-05T05:40:38.489Z,1008.44
2022-11-05T05:41:38.479Z,1008.46
2022-11-05T05:42:42.839Z,1008.51
2022-11-05T05:43:38.474Z,1008.53
2022-11-05T05:44:38.450Z,1008.53
2022-11-05T05:45:38.434Z,1008.49
2022-11-05T05:46:38.422Z,1008.52
2022-11-05T05:47:38.413Z,1008.57
2022-11-05T05:48:38.413Z,1008.60
2022-11-05T05:49:38.392Z,1008.58
2022-11-05T05:50:38.382Z,1008.59
2022-11-05T05:51:38.386Z,1008.62
2022-11-05T05:52:38.366Z,1008.60
2022-11-05T05:53:38.366Z,1008.61
2022-11-05T05:54:42.487Z,1008.63
2022-11-05T05:55:38.345Z,1008.66
2022-11-05T05:56:38.316Z,1008.66
2022-11-05T05:57:38.309Z,1008.67
2022-11-05T05:58:38.323Z,1008.71
2022-11-05T05:59:38.284Z,1008.69
2022-11-05T06:00:38.273Z,1008.69
2022-11-05T06:01:38.423Z,1008.70
2022-11-05T06:02:38.383Z,1008.74
2022-11-05T06:03:38.252Z,1008.77
2022-11-05T06:04:38.232Z,1008.79
2022-11-05T06:05:38.221Z,1008.81
2022-11-05T06:06:38.211Z,1008.88
2022-11-05T06:07:38.212Z,1008.88
2022-11-05T06:08:38.197Z,1008.89
2022-11-05T06:09:38.181Z,1008.88
2022-11-05T06:10:38.306Z,1008.89
2022-11-05T06:11:38.184Z,1008.90
2022-11-05T06:12:38.156Z,1008.87
2022-11-05T06:13:38.149Z,1008.85
2022-11-05T06:14:38.123Z,1008.88
2022-11-05T06:15:38.116Z,1008.93
2022-11-05T06:16:38.111Z,1008.96
2022-11-05T06:17:38.094Z,1008.95
2022-11-05T06:18:38.106Z,1008.98
2022-11-05T06:19:38.073Z,1009.02
2022-11-05T06:20:38.062Z,1009.03
2022-11-05T06:21:38.057Z,1009.03
2022-11-05T06:22:38.058Z,1009.08
2022-11-05T06:23:38.030Z,1009.10
2022-11-05T06:24:38.024Z,1009.11
2022-11-05T06:25:41.226Z,1009.11
2022-11-05T06:26:37.997Z,1009.13
2022-11-05T06:27:38.005Z,1009.13
2022-11-05T06:28:38.011Z,1009.16
2022-11-05T06:29:37.966Z,1009.17
2022-11-05T06:30:37.952Z,1009.25
2022-11-05T06:31:37.946Z,1009.24
2022-11-05T06:32:37.932Z,1009.27
2022-11-05T06:33:37.929Z,1009.27
2022-11-05T06:34:37.912Z,1009.30
2022-11-05T06:35:37.904Z,1009.30
2022-11-05T06:36:37.886Z,1009.35
2022-11-05T06:37:37.896Z,1009.35
2022-11-05T06:38:37.872Z,1009.41
2022-11-05T06:39:37.858Z,1009.38
2022-11-05T06:40:37.846Z,1009.39
2022-11-05T06:41:56.948Z,1009.39
2022-11-05T06:42:38.831Z,1009.41
2022-11-05T06:43:37.837Z,1009.49
2022-11-05T06:44:37.808Z,1009.36
2022-11-05T06:45:37.794Z,1009.46
2022-11-05T06:46:37.782Z,1009.47
2022-11-05T06:47:37.782Z,1009.43
2022-11-05T06:48:37.763Z,1009.49
2022-11-05T06:49:37.747Z,1009.49
2022-11-05T06:50:37.739Z,1009.52
2022-11-05T06:51:37.730Z,1009.54
2022-11-05T06:52:41.017Z,1009.58
2022-11-05T06:53:37.715Z,1009.57
2022-11-05T06:54:37.699Z,1009.59
2022-11-05T06:55:37.689Z,1009.57
2022-11-05T06:56:37.677Z,1009.64
2022-11-05T06:57:37.693Z,1009.62
2022-11-05T06:58:37.662Z,1009.62
2022-11-05T06:59:37.660Z,1009.66
2022-11-05T07:00:37.689Z,1009.67
2022-11-05T07:01:37.848Z,1009.67
2022-11-05T07:02:37.621Z,1009.69
2022-11-05T07:03:37.610Z,1009.68
2022-11-05T07:04:37.591Z,1009.69
2022-11-05T07:05:37.576Z,1009.78
2022-11-05T07:06:37.567Z,1009.74
2022-11-05T07:07:37.572Z,1009.73
2022-11-05T07:08:37.553Z,1009.80
2022-11-05T07:09:37.535Z,1009.79
2022-11-05T07:10:37.526Z,1009.74
2022-11-05T07:11:37.514Z,1009.76
2022-11-05T07:12:37.519Z,1009.76
2022-11-05T07:13:37.492Z,1009.79
2022-11-05T07:14:37.490Z,1009.75
2022-11-05T07:15:37.491Z,1009.79
2022-11-05T07:16:37.465Z,1009.76
2022-11-05T07:17:37.463Z,1009.76
2022-11-05T07:18:37.441Z,1009.81
2022-11-05T07:19:37.433Z,1009.83
2022-11-05T07:20:37.419Z,1009.87
2022-11-05T07:21:37.406Z,1009.87
2022-11-05T07:22:37.410Z,1009.91
2022-11-05T07:23:37.386Z,1009.92
2022-11-05T07:24:37.376Z,1009.92
2022-11-05T07:25:37.365Z,1009.97
2022-11-05T07:26:37.357Z,1009.97
2022-11-05T07:27:37.355Z,1010.02
2022-11-05T07:28:37.334Z,1010.01
2022-11-05T07:29:37.320Z,1010.01
2022-11-05T07:30:37.323Z,1009.99
2022-11-05T07:31:37.316Z,1010.01
2022-11-05T07:32:37.302Z,1010.01
2022-11-05T07:33:37.279Z,1010.00
2022-11-05T07:34:37.270Z,1010.05
2022-11-05T07:35:37.258Z,1010.07
2022-11-05T07:36:37.255Z,1010.08
2022-11-05T07:37:37.234Z,1010.10
2022-11-05T07:38:37.252Z,1010.13
2022-11-05T07:39:37.212Z,1010.07
2022-11-05T07:40:37.201Z,1010.08
2022-11-05T07:41:37.201Z,1010.12
2022-11-05T07:42:37.181Z,1010.09
2022-11-05T07:43:37.170Z,1010.12
2022-11-05T07:44:37.159Z,1010.10
2022-11-05T07:45:37.146Z,1010.10
2022-11-05T07:46:37.153Z,1010.06
2022-11-05T07:47:37.142Z,1010.06
2022-11-05T07:48:37.122Z,1010.08
2022-11-05T07:49:37.104Z,1010.02
2022-11-05T07:50:37.093Z,1010.07
2022-11-05T07:51:37.093Z,1010.07
2022-11-05T07:52:37.076Z,1010.00
2022-11-05T07:53:41.026Z,1010.09
2022-11-05T07:54:38.053Z,1010.07
2022-11-05T07:55:37.040Z,1010.03
2022-11-05T07:56:37.039Z,1009.96
2022-11-05T07:57:37.017Z,1009.92
2022-11-05T07:58:37.006Z,1009.95
2022-11-05T07:59:36.995Z,1009.95
2022-11-05T08:00:37.079Z,1010.06
2022-11-05T08:01:37.283Z,1010.07
2022-11-05T08:02:37.320Z,1010.07
2022-11-05T08:03:37.021Z,1010.11
2022-11-05T08:04:36.942Z,1010.12
2022-11-05T08:05:36.929Z,1010.12
2022-11-05T08:06:36.937Z,1010.11
2022-11-05T08:07:36.910Z,1010.20
2022-11-05T08:08:36.904Z,1010.21
2022-11-05T08:09:36.889Z,1010.21
2022-11-05T08:10:36.877Z,1010.25
2022-11-05T08:11:36.874Z,1010.23
2022-11-05T08:12:36.855Z,1010.27
2022-11-05T08:13:36.852Z,1010.30
2022-11-05T08:14:36.837Z,1010.32
2022-11-05T08:15:36.825Z,1010.33
2022-11-05T08:16:36.831Z,1010.34
2022-11-05T08:17:36.799Z,1010.32
2022-11-05T08:18:36.790Z,1010.38
2022-11-05T08:19:36.794Z,1010.34
2022-11-05T08:20:36.769Z,1010.39
2022-11-05T08:21:36.765Z,1010.38
2022-11-05T08:22:36.748Z,1010.30
2022-11-05T08:23:36.755Z,1010.46
2022-11-05T08:24:36.725Z,1010.42
2022-11-05T08:25:36.716Z,1010.40
2022-11-05T08:26:36.712Z,1010.41
2022-11-05T08:27:36.690Z,1010.41
2022-11-05T08:28:36.685Z,1010.49
2022-11-05T08:29:36.669Z,1010.49
2022-11-05T08:30:36.665Z,1010.49
2022-11-05T08:31:36.658Z,1010.53
2022-11-05T08:32:36.638Z,1010.62
2022-11-05T08:33:36.624Z,1010.58
2022-11-05T08:34:36.615Z,1010.59
2022-11-05T08:35:36.633Z,1010.63
2022-11-05T08:36:36.603Z,1010.61
2022-11-05T08:37:36.580Z,1010.63
2022-11-05T08:38:36.574Z,1010.63
2022-11-05T08:39:36.562Z,1010.57
2022-11-05T08:40:36.553Z,1010.59
2022-11-05T08:41:36.569Z,1010.61
2022-11-05T08:42:36.530Z,1010.58
2022-11-05T08:43:44.212Z,1010.55
2022-11-05T08:44:36.513Z,1010.57
2022-11-05T08:45:38.075Z,1010.63
2022-11-05T08:46:41.384Z,1010.56
2022-11-05T08:47:37.472Z,1010.63
2022-11-05T08:48:36.463Z,1010.59
2022-11-05T08:49:36.456Z,1010.63
2022-11-05T08:50:36.443Z,1010.68
2022-11-05T08:51:36.461Z,1010.67
2022-11-05T08:52:36.422Z,1010.64
2022-11-05T08:53:36.409Z,1010.69
2022-11-05T08:54:36.398Z,1010.71
2022-11-05T08:55:36.386Z,1010.76
2022-11-05T08:56:36.391Z,1010.72
2022-11-05T08:57:36.364Z,1010.76
2022-11-05T08:58:36.356Z,1010.70
2022-11-05T08:59:36.356Z,1010.65
2022-11-05T09:00:36.367Z,1010.69
2022-11-05T09:01:36.479Z,1010.76
2022-11-05T09:02:36.357Z,1010.77
2022-11-05T09:03:36.300Z,1010.75
2022-11-05T09:04:36.292Z,1010.76
2022-11-05T09:05:36.279Z,1010.74
2022-11-05T09:06:36.285Z,1010.77
2022-11-05T09:07:36.276Z,1010.78
2022-11-05T09:08:36.250Z,1010.77
2022-11-05T09:09:36.243Z,1010.76
2022-11-05T09:10:36.256Z,1010.82
2022-11-05T09:12:05.309Z,1010.83
2022-11-05T09:12:37.205Z,1010.92
2022-11-05T09:13:36.191Z,1010.96
2022-11-05T09:14:36.182Z,1010.98
2022-11-05T09:15:36.186Z,1010.97
2022-11-05T09:16:36.188Z,1011.00
2022-11-05T09:17:36.147Z,1011.01
2022-11-05T09:18:36.140Z,1011.04
2022-11-05T09:19:39.784Z,1011.00
2022-11-05T09:20:36.129Z,1011.02
2022-11-05T09:21:36.105Z,1011.06
2022-11-05T09:22:42.068Z,1011.01
2022-11-05T09:23:37.098Z,1011.06
2022-11-05T09:24:36.076Z,1011.07
2022-11-05T09:25:36.074Z,1010.99
2022-11-05T09:26:36.061Z,1011.05
2022-11-05T09:27:36.042Z,1011.08
2022-11-05T09:28:36.032Z,1011.08
2022-11-05T09:29:36.022Z,1011.13
2022-11-05T09:30:36.028Z,1011.13
2022-11-05T09:31:36.000Z,1011.14
2022-11-05T09:32:35.990Z,1011.05
2022-11-05T09:33:35.978Z,1011.14
2022-11-05T09:34:35.972Z,1011.18
2022-11-05T09:35:35.980Z,1011.22
2022-11-05T09:36:35.947Z,1011.17
2022-11-05T09:37:35.938Z,1011.26
2022-11-05T09:38:35.928Z,1011.27
2022-11-05T09:39:35.952Z,1011.22
2022-11-05T09:40:35.932Z,1011.27
2022-11-05T09:41:35.897Z,1011.30
2022-11-05T09:42:35.889Z,1011.29
2022-11-05T09:43:35.875Z,1011.34
2022-11-05T09:44:35.866Z,1011.38
2022-11-05T09:45:35.870Z,1011.35
2022-11-05T09:46:35.853Z,1011.33
2022-11-05T09:47:35.836Z,1011.37
2022-11-05T09:48:35.826Z,1011.37
2022-11-05T09:49:35.818Z,1011.36
2022-11-05T09:50:35.822Z,1011.37
2022-11-05T09:51:35.794Z,1011.32
2022-11-05T09:52:35.786Z,1011.40
2022-11-05T09:53:35.776Z,1011.35
2022-11-05T09:54:35.766Z,1011.37
2022-11-05T09:55:35.782Z,1011.36
2022-11-05T09:56:35.747Z,1011.40
2022-11-05T09:57:35.737Z,1011.33
2022-11-05T09:58:35.726Z,1011.35
2022-11-05T09:59:35.715Z,1011.40
2022-11-05T10:00:35.737Z,1011.39
2022-11-05T10:01:35.836Z,1011.40
2022-11-05T10:02:36.000Z,1011.42
2022-11-05T10:03:35.675Z,1011.39
2022-11-05T10:04:35.668Z,1011.48
2022-11-05T10:05:35.786Z,1011.44
2022-11-05T10:06:35.649Z,1011.50
2022-11-05T10:07:35.638Z,1011.48
2022-11-05T10:08:35.628Z,1011.51
2022-11-05T10:09:35.623Z,1011.50
2022-11-05T10:10:40.574Z,1011.49
2022-11-05T10:11:36.616Z,1011.48
2022-11-05T10:12:35.590Z,1011.50
2022-11-05T10:13:35.581Z,1011.52
2022-11-05T10:14:35.570Z,1011.53
2022-11-05T10:15:35.583Z,1011.49
2022-11-05T10:16:35.553Z,1011.49
2022-11-05T10:17:39.055Z,1011.48
2022-11-05T10:18:35.542Z,1011.37
2022-11-05T10:19:35.522Z,1011.32
2022-11-05T10:20:35.527Z,1011.31
2022-11-05T10:22:04.329Z,1011.32
2022-11-05T10:22:36.499Z,1011.35
2022-11-05T10:23:35.483Z,1011.37
2022-11-05T10:24:35.480Z,1011.39
2022-11-05T10:25:35.475Z,1011.41
2022-11-05T10:26:35.451Z,1011.49
2022-11-05T10:27:35.455Z,1011.49
2022-11-05T10:28:35.447Z,1011.39
2022-11-05T10:29:35.425Z,1011.49
2022-11-05T10:30:35.423Z,1011.48
2022-11-05T10:31:35.749Z,1011.53
2022-11-05T10:32:35.389Z,1011.55
2022-11-05T10:33:35.376Z,1011.57
2022-11-05T10:34:35.366Z,1011.57
2022-11-05T10:35:35.369Z,1011.62
2022-11-05T10:36:35.344Z,1011.59
2022-11-05T10:37:40.482Z,1011.57
2022-11-05T10:38:36.324Z,1011.61
2022-11-05T10:39:35.316Z,1011.63
2022-11-05T10:40:35.314Z,1011.59
2022-11-05T10:41:35.287Z,1011.67
2022-11-05T10:42:35.295Z,1011.65
2022-11-05T10:43:35.423Z,1011.62
2022-11-05T10:44:35.260Z,1011.63
2022-11-05T10:45:35.272Z,1011.68
2022-11-05T10:46:35.242Z,1011.70
2022-11-05T10:47:35.226Z,1011.66
2022-11-05T10:48:39.340Z,1011.71
2022-11-05T10:49:36.203Z,1011.76
2022-11-05T10:50:35.209Z,1011.71
2022-11-05T10:51:35.194Z,1011.78
2022-11-05T10:52:35.172Z,1011.80
2022-11-05T10:53:35.165Z,1011.79
2022-11-05T10:54:35.155Z,1011.84
2022-11-05T10:55:35.159Z,1011.80
2022-11-05T10:56:35.133Z,1011.85
2022-11-05T10:57:35.117Z,1011.86
2022-11-05T10:58:35.113Z,1011.86
2022-11-05T10:59:35.127Z,1011.85
2022-11-05T11:00:35.099Z,1011.81
2022-11-05T11:01:35.289Z,1011.82
2022-11-05T11:02:35.121Z,1011.82
2022-11-05T11:03:35.054Z,1011.83
2022-11-05T11:04:38.102Z,1011.83
2022-11-05T11:05:35.055Z,1011.80
2022-11-05T11:06:35.022Z,1011.80
2022-11-05T11:07:35.009Z,1011.78
2022-11-05T11:08:35.051Z,1011.80
2022-11-05T11:09:34.987Z,1011.79
2022-11-05T11:10:35.012Z,1011.77
2022-11-05T11:11:34.970Z,1011.80
2022-11-05T11:12:40.557Z,1011.81
2022-11-05T11:13:35.945Z,1011.80
2022-11-05T11:14:34.946Z,1011.82
2022-11-05T11:15:34.937Z,1011.83
2022-11-05T11:16:34.912Z,1011.81
2022-11-05T11:17:34.911Z,1011.85
2022-11-05T11:18:39.886Z,1011.84
2022-11-05T11:19:35.900Z,1011.81
2022-11-05T11:20:34.867Z,1011.79
2022-11-05T11:21:34.859Z,1011.78
2022-11-05T11:22:34.848Z,1011.80
2022-11-05T11:23:34.838Z,1011.75
2022-11-05T11:24:34.837Z,1011.77
2022-11-05T11:25:34.816Z,1011.79
2022-11-05T11:26:34.803Z,1011.77
2022-11-05T11:27:34.795Z,1011.77
2022-11-05T11:28:34.784Z,1011.78
2022-11-05T11:29:34.807Z,1011.75
2022-11-05T11:30:34.760Z,1011.74
2022-11-05T11:31:34.781Z,1011.72
2022-11-05T11:32:34.736Z,1011.74
2022-11-05T11:33:34.728Z,1011.78
2022-11-05T11:34:34.735Z,1011.73
2022-11-05T11:35:34.707Z,1011.70
2022-11-05T11:36:34.701Z,1011.69
2022-11-05T11:37:34.715Z,1011.74
2022-11-05T11:38:34.672Z,1011.74
2022-11-05T11:39:34.679Z,1011.75
2022-11-05T11:40:34.659Z,1011.74
2022-11-05T11:41:34.644Z,1011.79
2022-11-05T11:42:34.630Z,1011.81
2022-11-05T11:43:34.623Z,1011.81
2022-11-05T11:44:34.625Z,1011.79
2022-11-05T11:45:34.603Z,1011.83
2022-11-05T11:46:34.588Z,1011.79
2022-11-05T11:47:34.593Z,1011.85
2022-11-05T11:48:34.564Z,1011.82
2022-11-05T11:49:34.566Z,1011.81
2022-11-05T11:50:34.543Z,1011.81
2022-11-05T11:51:34.535Z,1011.84
2022-11-05T11:52:34.529Z,1011.83
2022-11-05T11:53:34.514Z,1011.83
2022-11-05T11:54:34.539Z,1011.84
2022-11-05T11:55:34.497Z,1011.89
2022-11-05T11:56:34.481Z,1011.85
2022-11-05T11:57:34.469Z,1011.84
2022-11-05T11:58:34.459Z,1011.80
2022-11-05T12:00:02.381Z,1011.81
2022-11-05T12:00:35.478Z,1011.90
2022-11-05T12:01:34.480Z,1011.89
2022-11-05T12:02:34.453Z,1011.90
2022-11-05T12:03:34.427Z,1011.90
2022-11-05T12:04:34.438Z,1011.91
2022-11-05T12:05:34.390Z,1011.89